createdAt,value
2023-02-12T00:06:26.324Z,49.20
2023-02-12T00:14:31.755Z,49.53
2023-02-12T00:22:39.800Z,44.72
2023-02-12T00:30:45.283Z,39.95
2023-02-12T00:38:55.384Z,35.85
2023-02-12T00:47:03.910Z,31.35
2023-02-12T00:55:12.328Z,30.33
2023-02-12T01:03:18.223Z,29.98
2023-02-12T01:11:26.260Z,25.83
2023-02-12T01:19:32.029Z,31.20
2023-02-12T01:27:40.022Z,33.45
2023-02-12T01:35:45.448Z,30.45
2023-02-12T01:44:12.260Z,31.08
2023-02-12T01:52:21.447Z,33.33
2023-02-12T02:00:29.441Z,33.95
2023-02-12T02:08:37.736Z,32.45
2023-02-12T02:16:56.073Z,37.67
2023-02-12T02:25:24.893Z,37.15
2023-02-12T02:33:40.449Z,38.60
2023-02-12T02:41:50.521Z,41.35
2023-02-12T02:50:02.536Z,36.33
2023-02-12T02:58:12.321Z,37.97
2023-02-12T03:06:25.496Z,44.75
2023-02-12T03:14:35.289Z,47.80
2023-02-12T03:22:46.452Z,44.42
2023-02-12T03:30:57.060Z,43.42
2023-02-12T03:39:11.530Z,46.60
2023-02-12T03:47:24.507Z,46.60
2023-02-12T03:55:35.810Z,46.17
2023-02-12T04:03:41.628Z,42.58
2023-02-12T04:12:05.475Z,44.17
2023-02-12T04:20:18.628Z,37.35
2023-02-12T04:28:37.617Z,41.35
2023-02-12T04:36:54.758Z,33.72
2023-02-12T04:45:02.826Z,35.42
2023-02-12T04:53:08.673Z,42.45
2023-02-12T05:01:16.697Z,39.75
2023-02-12T05:09:23.938Z,37.95
2023-02-12T05:17:31.964Z,39.03
2023-02-12T05:25:37.285Z,40.97
2023-02-12T05:33:45.265Z,41.72
2023-02-12T05:41:50.695Z,32.95
2023-02-12T05:49:58.689Z,31.13
2023-02-12T05:58:03.993Z,33.33
2023-02-12T06:06:12.230Z,34.85
2023-02-12T06:14:19.293Z,31.48
2023-02-12T06:22:27.244Z,36.30
2023-02-12T06:30:32.683Z,35.85
2023-02-12T06:38:40.920Z,38.92
2023-02-12T06:46:46.455Z,37.53
2023-02-12T06:54:54.583Z,38.67
2023-02-12T07:03:00.112Z,41.95
2023-02-12T07:11:08.708Z,42.00
2023-02-12T07:19:17.218Z,42.08
2023-02-12T07:27:25.256Z,42.92
2023-02-12T07:35:30.674Z,44.10
2023-02-12T07:43:38.824Z,41.60
2023-02-12T07:51:44.866Z,45.50
2023-02-12T07:59:52.849Z,53.17
2023-02-12T08:07:58.169Z,73.57
2023-02-12T08:16:08.555Z,76.57
2023-02-12T08:24:14.690Z,67.82
2023-02-12T08:32:22.620Z,75.88
2023-02-12T08:40:27.935Z,65.07
2023-02-12T08:48:36.202Z,60.20
2023-02-12T08:56:41.597Z,55.28
2023-02-12T09:04:49.572Z,60.97
2023-02-12T09:12:55.041Z,64.00
2023-02-12T09:21:07.916Z,60.97
2023-02-12T09:29:13.331Z,52.93
2023-02-12T09:37:21.246Z,53.40
2023-02-12T09:45:33.161Z,51.25
2023-02-12T09:53:46.438Z,50.97
2023-02-12T10:01:51.828Z,52.05
2023-02-12T10:10:21.859Z,51.92
2023-02-12T10:18:48.472Z,56.33
2023-02-12T10:27:03.965Z,59.03
2023-02-12T10:35:17.110Z,62.58
2023-02-12T10:43:25.141Z,40.00
2023-02-12T10:51:51.706Z,34.55
2023-02-12T11:00:19.589Z,35.65
2023-02-12T11:08:34.497Z,29.95
2023-02-12T11:16:49.643Z,32.90
2023-02-12T11:25:03.410Z,31.33
2023-02-12T11:33:27.743Z,31.63
2023-02-12T11:41:37.619Z,49.08
2023-02-12T11:49:52.911Z,53.70
2023-02-12T11:58:05.842Z,52.22
2023-02-12T12:06:25.168Z,56.43
2023-02-12T12:14:34.948Z,52.35
2023-02-12T12:22:52.413Z,50.15
2023-02-12T12:31:10.233Z,45.45
2023-02-12T12:39:29.712Z,44.42
2023-02-12T12:47:43.692Z,42.75
2023-02-12T12:56:04.056Z,41.47
2023-02-12T13:04:35.867Z,43.08
2023-02-12T13:12:58.276Z,43.28
2023-02-12T13:21:08.682Z,46.92
2023-02-12T13:29:21.621Z,48.65
2023-02-12T13:37:36.631Z,47.27
2023-02-12T13:45:53.407Z,49.05
2023-02-12T13:54:14.790Z,47.55
2023-02-12T14:02:52.871Z,54.55
2023-02-12T14:11:12.403Z,59.35
2023-02-12T14:20:03.802Z,53.60
2023-02-12T14:28:26.441Z,47.50
2023-02-12T14:36:44.091Z,40.65
2023-02-12T14:44:59.328Z,40.58
2023-02-12T14:53:28.473Z,41.17
2023-02-12T15:01:38.558Z,44.85
2023-02-12T15:09:50.726Z,46.05
2023-02-12T15:18:03.498Z,51.00
2023-02-12T15:26:15.733Z,50.78
2023-02-12T15:34:26.979Z,57.83
2023-02-12T15:42:34.788Z,57.53
2023-02-12T15:50:53.763Z,64.47
2023-02-12T15:59:01.995Z,68.95
2023-02-12T16:07:11.400Z,72.75
2023-02-12T16:15:35.523Z,61.08
2023-02-12T16:23:47.237Z,61.20
2023-02-12T16:32:04.352Z,57.05
2023-02-12T16:40:43.036Z,55.65
2023-02-12T16:48:51.941Z,53.20
2023-02-12T16:57:03.839Z,56.03
2023-02-12T17:05:10.510Z,54.55
2023-02-12T17:13:21.020Z,55.65
2023-02-12T17:21:30.392Z,103.15
2023-02-12T17:29:38.575Z,79.57
2023-02-12T17:37:44.048Z,78.28
2023-02-12T17:45:53.408Z,77.65
2023-02-12T17:54:12.740Z,96.82
2023-02-12T18:02:21.319Z,98.82
2023-02-12T18:10:28.769Z,88.63
2023-02-12T18:18:38.603Z,69.63
2023-02-12T18:26:46.977Z,67.00
2023-02-12T18:34:55.372Z,69.13
2023-02-12T18:43:00.849Z,66.80
2023-02-12T18:51:11.709Z,62.45
2023-02-12T18:59:18.412Z,79.25
2023-02-12T19:07:27.561Z,95.13
2023-02-12T19:15:33.213Z,93.65
2023-02-12T19:23:42.066Z,97.75
2023-02-12T19:31:49.907Z,87.65
2023-02-12T19:39:58.035Z,76.40
2023-02-12T19:48:03.545Z,81.15
2023-02-12T19:56:12.078Z,74.53
2023-02-12T20:04:19.566Z,80.90
2023-02-12T20:12:27.680Z,82.57
2023-02-12T20:20:33.375Z,77.40
2023-02-12T20:28:44.676Z,71.60
2023-02-12T20:36:51.086Z,69.70
2023-02-12T20:44:59.162Z,69.97
2023-02-12T20:53:06.165Z,78.20
2023-02-12T21:01:17.353Z,80.57
2023-02-12T21:09:23.376Z,92.65
2023-02-12T21:17:31.437Z,85.65
2023-02-12T21:25:36.852Z,79.93
2023-02-12T21:33:46.622Z,106.82
2023-02-12T21:41:52.071Z,105.63
2023-02-12T21:50:00.121Z,96.30
2023-02-12T21:58:05.712Z,77.82
2023-02-12T22:06:15.012Z,71.57
2023-02-12T22:14:20.860Z,64.57
2023-02-12T22:22:30.496Z,71.22
2023-02-12T22:30:36.316Z,84.97
2023-02-12T22:38:44.802Z,77.90
2023-02-12T22:46:50.371Z,66.80
2023-02-12T22:54:58.357Z,66.65
2023-02-12T23:03:03.739Z,67.97
2023-02-12T23:11:12.919Z,65.10
2023-02-12T23:19:18.589Z,71.57
2023-02-12T23:27:26.521Z,66.25
2023-02-12T23:35:32.427Z,61.45
2023-02-12T23:43:40.353Z,50.47
2023-02-12T23:51:46.507Z,52.08
2023-02-12T23:59:54.769Z,52.30
